Pyrites, New York
Current Conditions -  °F | °C
As of 1:53 PM on Friday 28 Nov 2014 (Local Time) from KMSS Reporting Station
Overcast Overcast  
Wind Chill: 14°   Ceiling: 4100
Heat Index: 25°   Visibility: 9mi
Dew Point: 14°   Wind: 12mph
Humidity: 63%   Direction: 280°W
Pressure: 30.14"   Gusts: NA
Location:  44.51°N, 75.19°W
Report Text: KMSS 281853Z AUTO 28010KT 9SM OVC041 M04/M10 A3014 RMK AO2 SNB33E48 SLP215 P0000 T10391100
Loading
Personal Weather Stations






























Interactive Weather Map New forecast layout! Learn more

10-Day Weather Forecast

Advertisements
Track Severe Weather on mobile